sensor_id;sensor_type;location;lat;lon;timestamp;P1;durP1;ratioP1;P2;durP2;ratioP2
12968;SDS011;6549;53.128;8.182;2023-02-22T00:01:32;45.85;;;20.23;;
12968;SDS011;6549;53.128;8.182;2023-02-22T00:04:49;44.53;;;19.63;;
12968;SDS011;6549;53.128;8.182;2023-02-22T00:07:49;41.65;;;18.23;;
12968;SDS011;6549;53.128;8.182;2023-02-22T00:10:50;36.72;;;15.98;;
12968;SDS011;6549;53.128;8.182;2023-02-22T00:13:50;39.03;;;17.33;;
12968;SDS011;6549;53.128;8.182;2023-02-22T00:16:51;41.33;;;17.55;;
12968;SDS011;6549;53.128;8.182;2023-02-22T00:19:51;42.20;;;18.17;;
12968;SDS011;6549;53.128;8.182;2023-02-22T00:22:51;40.97;;;18.02;;
12968;SDS011;6549;53.128;8.182;2023-02-22T00:25:52;42.30;;;18.13;;
12968;SDS011;6549;53.128;8.182;2023-02-22T00:28:54;37.78;;;16.35;;
12968;SDS011;6549;53.128;8.182;2023-02-22T00:31:55;38.53;;;16.58;;
12968;SDS011;6549;53.128;8.182;2023-02-22T00:34:55;42.50;;;18.50;;
12968;SDS011;6549;53.128;8.182;2023-02-22T00:37:59;45.22;;;18.50;;
12968;SDS011;6549;53.128;8.182;2023-02-22T00:41:00;45.85;;;19.42;;
12968;SDS011;6549;53.128;8.182;2023-02-22T00:44:01;48.17;;;20.15;;
12968;SDS011;6549;53.128;8.182;2023-02-22T00:47:01;48.45;;;20.10;;
12968;SDS011;6549;53.128;8.182;2023-02-22T00:50:03;43.97;;;18.85;;
12968;SDS011;6549;53.128;8.182;2023-02-22T00:53:04;40.45;;;18.15;;
12968;SDS011;6549;53.128;8.182;2023-02-22T00:56:06;42.40;;;18.48;;
12968;SDS011;6549;53.128;8.182;2023-02-22T00:59:06;45.08;;;19.25;;
12968;SDS011;6549;53.128;8.182;2023-02-22T01:02:06;41.10;;;17.58;;
12968;SDS011;6549;53.128;8.182;2023-02-22T01:05:09;46.15;;;19.85;;
12968;SDS011;6549;53.128;8.182;2023-02-22T01:08:14;48.63;;;20.48;;
12968;SDS011;6549;53.128;8.182;2023-02-22T01:11:15;42.22;;;18.67;;
12968;SDS011;6549;53.128;8.182;2023-02-22T01:14:16;41.95;;;18.58;;
12968;SDS011;6549;53.128;8.182;2023-02-22T01:17:17;49.75;;;21.92;;
12968;SDS011;6549;53.128;8.182;2023-02-22T01:20:18;46.28;;;19.83;;
12968;SDS011;6549;53.128;8.182;2023-02-22T01:23:19;43.15;;;17.58;;
12968;SDS011;6549;53.128;8.182;2023-02-22T01:26:20;40.42;;;17.52;;
12968;SDS011;6549;53.128;8.182;2023-02-22T01:29:20;35.55;;;15.90;;
12968;SDS011;6549;53.128;8.182;2023-02-22T01:32:21;37.88;;;17.50;;
12968;SDS011;6549;53.128;8.182;2023-02-22T01:35:22;45.90;;;19.40;;
12968;SDS011;6549;53.128;8.182;2023-02-22T01:38:25;47.75;;;20.35;;
12968;SDS011;6549;53.128;8.182;2023-02-22T01:41:25;42.17;;;18.30;;
12968;SDS011;6549;53.128;8.182;2023-02-22T01:44:33;44.88;;;18.85;;
12968;SDS011;6549;53.128;8.182;2023-02-22T01:47:37;40.40;;;18.50;;
12968;SDS011;6549;53.128;8.182;2023-02-22T01:50:39;41.97;;;17.92;;
12968;SDS011;6549;53.128;8.182;2023-02-22T01:53:51;41.67;;;18.77;;
12968;SDS011;6549;53.128;8.182;2023-02-22T01:56:58;42.78;;;19.90;;
12968;SDS011;6549;53.128;8.182;2023-02-22T02:00:05;45.20;;;19.17;;
12968;SDS011;6549;53.128;8.182;2023-02-22T02:03:11;43.70;;;19.33;;
12968;SDS011;6549;53.128;8.182;2023-02-22T02:06:16;44.42;;;19.25;;
12968;SDS011;6549;53.128;8.182;2023-02-22T02:09:32;46.00;;;19.85;;
12968;SDS011;6549;53.128;8.182;2023-02-22T02:12:48;46.78;;;21.58;;
12968;SDS011;6549;53.128;8.182;2023-02-22T02:15:50;42.65;;;18.98;;
12968;SDS011;6549;53.128;8.182;2023-02-22T02:18:54;47.90;;;20.13;;
12968;SDS011;6549;53.128;8.182;2023-02-22T02:22:01;43.25;;;19.17;;
12968;SDS011;6549;53.128;8.182;2023-02-22T02:35:31;49.58;;;19.67;;
12968;SDS011;6549;53.128;8.182;2023-02-22T02:41:56;48.85;;;19.25;;
12968;SDS011;6549;53.128;8.182;2023-02-22T02:45:04;56.80;;;20.85;;
12968;SDS011;6549;53.128;8.182;2023-02-22T02:48:10;59.20;;;21.80;;
12968;SDS011;6549;53.128;8.182;2023-02-22T02:51:13;58.90;;;22.15;;
12968;SDS011;6549;53.128;8.182;2023-02-22T02:54:14;62.13;;;23.15;;
12968;SDS011;6549;53.128;8.182;2023-02-22T02:57:16;56.17;;;21.60;;
12968;SDS011;6549;53.128;8.182;2023-02-22T03:00:17;63.05;;;24.65;;
12968;SDS011;6549;53.128;8.182;2023-02-22T03:14:10;60.92;;;21.92;;
12968;SDS011;6549;53.128;8.182;2023-02-22T03:20:45;56.13;;;21.42;;
12968;SDS011;6549;53.128;8.182;2023-02-22T03:27:30;47.90;;;18.48;;
12968;SDS011;6549;53.128;8.182;2023-02-22T03:30:59;41.95;;;17.65;;
12968;SDS011;6549;53.128;8.182;2023-02-22T03:37:18;47.90;;;19.85;;
12968;SDS011;6549;53.128;8.182;2023-02-22T03:40:30;56.38;;;20.13;;
12968;SDS011;6549;53.128;8.182;2023-02-22T03:43:35;53.28;;;22.95;;
12968;SDS011;6549;53.128;8.182;2023-02-22T03:46:39;47.33;;;18.88;;
12968;SDS011;6549;53.128;8.182;2023-02-22T03:49:44;49.20;;;18.50;;
12968;SDS011;6549;53.128;8.182;2023-02-22T03:52:52;42.70;;;18.23;;
12968;SDS011;6549;53.128;8.182;2023-02-22T03:55:52;46.75;;;18.20;;
12968;SDS011;6549;53.128;8.182;2023-02-22T03:58:56;41.22;;;17.90;;
12968;SDS011;6549;53.128;8.182;2023-02-22T04:01:57;40.75;;;18.05;;
12968;SDS011;6549;53.128;8.182;2023-02-22T04:04:57;38.33;;;17.33;;
12968;SDS011;6549;53.128;8.182;2023-02-22T04:07:58;43.72;;;19.08;;
12968;SDS011;6549;53.128;8.182;2023-02-22T04:10:58;40.45;;;17.52;;
12968;SDS011;6549;53.128;8.182;2023-02-22T04:14:00;41.53;;;17.95;;
12968;SDS011;6549;53.128;8.182;2023-02-22T04:17:00;40.50;;;19.10;;
12968;SDS011;6549;53.128;8.182;2023-02-22T04:20:01;46.42;;;19.17;;
12968;SDS011;6549;53.128;8.182;2023-02-22T04:23:01;43.38;;;20.58;;
12968;SDS011;6549;53.128;8.182;2023-02-22T04:26:01;35.50;;;16.63;;
12968;SDS011;6549;53.128;8.182;2023-02-22T04:29:02;38.70;;;18.05;;
12968;SDS011;6549;53.128;8.182;2023-02-22T04:32:03;37.45;;;16.52;;
12968;SDS011;6549;53.128;8.182;2023-02-22T04:35:04;38.80;;;18.02;;
12968;SDS011;6549;53.128;8.182;2023-02-22T04:38:05;41.10;;;19.10;;
12968;SDS011;6549;53.128;8.182;2023-02-22T04:44:08;31.13;;;15.65;;
12968;SDS011;6549;53.128;8.182;2023-02-22T04:47:08;36.78;;;17.67;;
12968;SDS011;6549;53.128;8.182;2023-02-22T04:50:10;38.42;;;16.88;;
12968;SDS011;6549;53.128;8.182;2023-02-22T04:53:11;34.85;;;16.77;;
12968;SDS011;6549;53.128;8.182;2023-02-22T04:56:11;36.20;;;16.08;;
12968;SDS011;6549;53.128;8.182;2023-02-22T04:59:11;36.97;;;17.35;;
12968;SDS011;6549;53.128;8.182;2023-02-22T05:02:12;36.90;;;16.42;;
12968;SDS011;6549;53.128;8.182;2023-02-22T05:05:16;36.65;;;16.83;;
12968;SDS011;6549;53.128;8.182;2023-02-22T05:08:18;39.40;;;18.27;;
12968;SDS011;6549;53.128;8.182;2023-02-22T05:11:18;36.40;;;17.70;;
12968;SDS011;6549;53.128;8.182;2023-02-22T05:14:19;36.08;;;16.88;;
12968;SDS011;6549;53.128;8.182;2023-02-22T05:17:19;37.33;;;17.83;;
12968;SDS011;6549;53.128;8.182;2023-02-22T05:20:24;34.13;;;16.92;;
12968;SDS011;6549;53.128;8.182;2023-02-22T05:23:29;35.10;;;16.85;;
12968;SDS011;6549;53.128;8.182;2023-02-22T05:26:29;38.05;;;17.20;;
12968;SDS011;6549;53.128;8.182;2023-02-22T05:29:29;38.67;;;17.35;;
12968;SDS011;6549;53.128;8.182;2023-02-22T05:32:30;36.95;;;17.02;;
12968;SDS011;6549;53.128;8.182;2023-02-22T05:35:30;40.33;;;18.30;;
12968;SDS011;6549;53.128;8.182;2023-02-22T05:38:31;34.33;;;16.45;;
12968;SDS011;6549;53.128;8.182;2023-02-22T05:41:31;37.55;;;17.95;;
12968;SDS011;6549;53.128;8.182;2023-02-22T05:44:32;32.00;;;16.35;;
12968;SDS011;6549;53.128;8.182;2023-02-22T05:47:32;36.78;;;17.58;;
12968;SDS011;6549;53.128;8.182;2023-02-22T05:50:32;36.42;;;17.27;;
12968;SDS011;6549;53.128;8.182;2023-02-22T05:53:33;37.97;;;17.30;;
12968;SDS011;6549;53.128;8.182;2023-02-22T05:56:33;37.13;;;17.52;;
12968;SDS011;6549;53.128;8.182;2023-02-22T05:59:35;41.15;;;17.10;;
12968;SDS011;6549;53.128;8.182;2023-02-22T06:02:35;35.47;;;15.80;;
12968;SDS011;6549;53.128;8.182;2023-02-22T06:05:36;30.80;;;14.80;;
12968;SDS011;6549;53.128;8.182;2023-02-22T06:08:36;32.22;;;15.80;;
12968;SDS011;6549;53.128;8.182;2023-02-22T06:11:36;33.88;;;16.10;;
12968;SDS011;6549;53.128;8.182;2023-02-22T06:14:37;36.92;;;17.17;;
12968;SDS011;6549;53.128;8.182;2023-02-22T06:17:37;38.53;;;17.33;;
12968;SDS011;6549;53.128;8.182;2023-02-22T06:20:38;35.53;;;16.17;;
12968;SDS011;6549;53.128;8.182;2023-02-22T06:23:38;37.33;;;17.85;;
12968;SDS011;6549;53.128;8.182;2023-02-22T06:26:39;40.63;;;17.60;;
12968;SDS011;6549;53.128;8.182;2023-02-22T06:29:45;35.45;;;16.50;;
12968;SDS011;6549;53.128;8.182;2023-02-22T06:32:46;36.78;;;16.95;;
12968;SDS011;6549;53.128;8.182;2023-02-22T06:35:46;36.75;;;16.80;;
12968;SDS011;6549;53.128;8.182;2023-02-22T06:38:47;36.33;;;16.15;;
12968;SDS011;6549;53.128;8.182;2023-02-22T06:41:47;36.38;;;16.70;;
12968;SDS011;6549;53.128;8.182;2023-02-22T06:44:49;35.45;;;17.25;;
12968;SDS011;6549;53.128;8.182;2023-02-22T06:47:49;33.20;;;16.70;;
12968;SDS011;6549;53.128;8.182;2023-02-22T06:50:50;36.95;;;16.88;;
12968;SDS011;6549;53.128;8.182;2023-02-22T06:53:50;34.88;;;16.50;;
12968;SDS011;6549;53.128;8.182;2023-02-22T06:56:50;37.53;;;16.75;;
12968;SDS011;6549;53.128;8.182;2023-02-22T06:59:51;33.35;;;15.57;;
12968;SDS011;6549;53.128;8.182;2023-02-22T07:02:51;35.45;;;16.25;;
12968;SDS011;6549;53.128;8.182;2023-02-22T07:05:53;39.43;;;17.73;;
12968;SDS011;6549;53.128;8.182;2023-02-22T07:08:54;37.03;;;17.52;;
12968;SDS011;6549;53.128;8.182;2023-02-22T07:11:54;40.22;;;19.38;;
12968;SDS011;6549;53.128;8.182;2023-02-22T07:14:55;36.45;;;17.38;;
12968;SDS011;6549;53.128;8.182;2023-02-22T07:17:55;36.45;;;17.38;;
12968;SDS011;6549;53.128;8.182;2023-02-22T07:20:55;41.33;;;19.25;;
12968;SDS011;6549;53.128;8.182;2023-02-22T07:23:57;42.97;;;19.23;;
12968;SDS011;6549;53.128;8.182;2023-02-22T07:26:59;39.63;;;18.35;;
12968;SDS011;6549;53.128;8.182;2023-02-22T07:30:00;41.30;;;19.13;;
12968;SDS011;6549;53.128;8.182;2023-02-22T07:33:01;39.70;;;18.52;;
12968;SDS011;6549;53.128;8.182;2023-02-22T07:36:06;42.83;;;19.60;;
12968;SDS011;6549;53.128;8.182;2023-02-22T07:39:06;40.90;;;18.60;;
12968;SDS011;6549;53.128;8.182;2023-02-22T07:42:07;46.67;;;20.30;;
12968;SDS011;6549;53.128;8.182;2023-02-22T07:45:09;45.03;;;20.80;;
12968;SDS011;6549;53.128;8.182;2023-02-22T07:48:09;46.53;;;21.00;;
12968;SDS011;6549;53.128;8.182;2023-02-22T07:51:13;45.63;;;20.23;;
12968;SDS011;6549;53.128;8.182;2023-02-22T07:54:14;40.15;;;17.60;;
12968;SDS011;6549;53.128;8.182;2023-02-22T07:57:15;43.80;;;19.05;;
12968;SDS011;6549;53.128;8.182;2023-02-22T08:00:16;47.05;;;21.00;;
12968;SDS011;6549;53.128;8.182;2023-02-22T08:03:23;45.70;;;19.73;;
12968;SDS011;6549;53.128;8.182;2023-02-22T08:06:24;45.17;;;19.25;;
12968;SDS011;6549;53.128;8.182;2023-02-22T08:09:25;42.60;;;18.20;;
12968;SDS011;6549;53.128;8.182;2023-02-22T08:12:25;41.65;;;17.98;;
12968;SDS011;6549;53.128;8.182;2023-02-22T08:15:27;45.50;;;19.02;;
12968;SDS011;6549;53.128;8.182;2023-02-22T08:18:29;45.53;;;19.70;;
12968;SDS011;6549;53.128;8.182;2023-02-22T08:21:30;40.78;;;17.83;;
12968;SDS011;6549;53.128;8.182;2023-02-22T08:24:30;43.75;;;17.88;;
12968;SDS011;6549;53.128;8.182;2023-02-22T08:27:31;42.00;;;17.77;;
12968;SDS011;6549;53.128;8.182;2023-02-22T08:30:33;40.90;;;18.75;;
12968;SDS011;6549;53.128;8.182;2023-02-22T08:33:34;40.40;;;16.92;;
12968;SDS011;6549;53.128;8.182;2023-02-22T08:36:34;40.40;;;17.63;;
12968;SDS011;6549;53.128;8.182;2023-02-22T08:39:34;44.20;;;18.50;;
12968;SDS011;6549;53.128;8.182;2023-02-22T08:42:35;42.40;;;17.65;;
12968;SDS011;6549;53.128;8.182;2023-02-22T08:45:35;42.50;;;18.10;;
12968;SDS011;6549;53.128;8.182;2023-02-22T08:48:35;35.58;;;16.48;;
12968;SDS011;6549;53.128;8.182;2023-02-22T08:51:36;42.67;;;17.27;;
12968;SDS011;6549;53.128;8.182;2023-02-22T08:54:36;37.33;;;16.90;;
12968;SDS011;6549;53.128;8.182;2023-02-22T08:57:37;38.38;;;16.73;;
12968;SDS011;6549;53.128;8.182;2023-02-22T09:00:38;37.67;;;16.20;;
12968;SDS011;6549;53.128;8.182;2023-02-22T09:03:39;37.05;;;17.52;;
12968;SDS011;6549;53.128;8.182;2023-02-22T09:06:40;36.88;;;16.42;;
12968;SDS011;6549;53.128;8.182;2023-02-22T09:09:41;39.35;;;16.52;;
12968;SDS011;6549;53.128;8.182;2023-02-22T09:12:42;39.30;;;17.60;;
12968;SDS011;6549;53.128;8.182;2023-02-22T09:15:43;37.28;;;17.20;;
12968;SDS011;6549;53.128;8.182;2023-02-22T09:18:43;39.70;;;16.85;;
12968;SDS011;6549;53.128;8.182;2023-02-22T09:21:43;37.55;;;17.27;;
12968;SDS011;6549;53.128;8.182;2023-02-22T09:24:44;36.22;;;17.63;;
12968;SDS011;6549;53.128;8.182;2023-02-22T09:27:48;33.97;;;17.55;;
12968;SDS011;6549;53.128;8.182;2023-02-22T09:30:50;37.30;;;17.60;;
12968;SDS011;6549;53.128;8.182;2023-02-22T09:33:50;36.72;;;18.42;;
12968;SDS011;6549;53.128;8.182;2023-02-22T09:36:50;37.50;;;17.45;;
12968;SDS011;6549;53.128;8.182;2023-02-22T09:39:51;37.35;;;18.23;;
12968;SDS011;6549;53.128;8.182;2023-02-22T09:42:55;38.03;;;19.17;;
12968;SDS011;6549;53.128;8.182;2023-02-22T09:46:11;36.70;;;19.15;;
12968;SDS011;6549;53.128;8.182;2023-02-22T09:56:00;50.42;;;27.50;;
12968;SDS011;6549;53.128;8.182;2023-02-22T09:59:06;49.80;;;28.13;;
12968;SDS011;6549;53.128;8.182;2023-02-22T10:02:25;50.28;;;27.63;;
12968;SDS011;6549;53.128;8.182;2023-02-22T10:05:31;48.88;;;27.42;;
12968;SDS011;6549;53.128;8.182;2023-02-22T10:08:37;48.33;;;25.77;;
12968;SDS011;6549;53.128;8.182;2023-02-22T10:15:16;65.05;;;34.15;;
12968;SDS011;6549;53.128;8.182;2023-02-22T10:18:56;75.50;;;40.20;;
12968;SDS011;6549;53.128;8.182;2023-02-22T10:22:22;72.22;;;36.58;;
12968;SDS011;6549;53.128;8.182;2023-02-22T10:25:36;66.05;;;34.47;;
12968;SDS011;6549;53.128;8.182;2023-02-22T10:28:59;70.70;;;36.95;;
12968;SDS011;6549;53.128;8.182;2023-02-22T10:32:10;65.70;;;34.63;;
12968;SDS011;6549;53.128;8.182;2023-02-22T10:35:23;73.53;;;36.33;;
12968;SDS011;6549;53.128;8.182;2023-02-22T10:38:28;67.07;;;34.60;;
12968;SDS011;6549;53.128;8.182;2023-02-22T10:41:31;60.83;;;33.92;;
12968;SDS011;6549;53.128;8.182;2023-02-22T10:44:37;53.58;;;29.77;;
12968;SDS011;6549;53.128;8.182;2023-02-22T10:47:39;53.47;;;28.92;;
12968;SDS011;6549;53.128;8.182;2023-02-22T10:50:40;51.90;;;28.10;;
12968;SDS011;6549;53.128;8.182;2023-02-22T10:53:42;49.55;;;28.35;;
12968;SDS011;6549;53.128;8.182;2023-02-22T10:56:45;42.03;;;25.90;;
12968;SDS011;6549;53.128;8.182;2023-02-22T10:59:47;48.75;;;27.95;;
12968;SDS011;6549;53.128;8.182;2023-02-22T11:02:49;43.38;;;25.33;;
12968;SDS011;6549;53.128;8.182;2023-02-22T11:05:52;43.03;;;24.30;;
12968;SDS011;6549;53.128;8.182;2023-02-22T11:12:18;41.78;;;23.45;;
12968;SDS011;6549;53.128;8.182;2023-02-22T11:18:24;40.42;;;23.75;;
12968;SDS011;6549;53.128;8.182;2023-02-22T11:21:28;39.60;;;22.77;;
12968;SDS011;6549;53.128;8.182;2023-02-22T11:24:31;38.20;;;21.23;;
12968;SDS011;6549;53.128;8.182;2023-02-22T11:30:38;38.53;;;20.30;;
12968;SDS011;6549;53.128;8.182;2023-02-22T11:33:38;37.33;;;20.05;;
12968;SDS011;6549;53.128;8.182;2023-02-22T11:36:45;35.47;;;19.45;;
12968;SDS011;6549;53.128;8.182;2023-02-22T11:39:45;36.17;;;19.20;;
12968;SDS011;6549;53.128;8.182;2023-02-22T11:42:46;37.53;;;20.25;;
12968;SDS011;6549;53.128;8.182;2023-02-22T11:46:01;35.53;;;20.40;;
12968;SDS011;6549;53.128;8.182;2023-02-22T11:49:07;37.88;;;20.05;;
12968;SDS011;6549;53.128;8.182;2023-02-22T11:55:42;34.42;;;18.55;;
12968;SDS011;6549;53.128;8.182;2023-02-22T11:58:55;32.63;;;18.25;;
12968;SDS011;6549;53.128;8.182;2023-02-22T12:05:37;29.45;;;16.25;;
12968;SDS011;6549;53.128;8.182;2023-02-22T12:12:26;31.35;;;16.70;;
12968;SDS011;6549;53.128;8.182;2023-02-22T12:15:41;33.50;;;16.33;;
12968;SDS011;6549;53.128;8.182;2023-02-22T12:22:25;32.00;;;17.88;;
12968;SDS011;6549;53.128;8.182;2023-02-22T12:25:45;29.02;;;15.38;;
12968;SDS011;6549;53.128;8.182;2023-02-22T12:29:00;30.48;;;16.08;;
12968;SDS011;6549;53.128;8.182;2023-02-22T12:32:37;27.67;;;15.50;;
12968;SDS011;6549;53.128;8.182;2023-02-22T12:35:51;28.98;;;15.30;;
12968;SDS011;6549;53.128;8.182;2023-02-22T12:38:59;27.80;;;15.00;;
12968;SDS011;6549;53.128;8.182;2023-02-22T12:42:11;27.67;;;14.50;;
12968;SDS011;6549;53.128;8.182;2023-02-22T12:45:25;30.45;;;16.00;;
12968;SDS011;6549;53.128;8.182;2023-02-22T12:48:53;27.02;;;15.02;;
12968;SDS011;6549;53.128;8.182;2023-02-22T13:01:24;25.83;;;14.07;;
12968;SDS011;6549;53.128;8.182;2023-02-22T13:04:29;28.08;;;14.48;;
12968;SDS011;6549;53.128;8.182;2023-02-22T13:07:38;27.52;;;15.20;;
12968;SDS011;6549;53.128;8.182;2023-02-22T13:10:56;26.80;;;14.45;;
12968;SDS011;6549;53.128;8.182;2023-02-22T13:17:50;26.00;;;13.95;;
12968;SDS011;6549;53.128;8.182;2023-02-22T13:24:18;23.55;;;13.20;;
12968;SDS011;6549;53.128;8.182;2023-02-22T13:27:22;27.95;;;14.60;;
12968;SDS011;6549;53.128;8.182;2023-02-22T13:30:38;29.25;;;14.75;;
12968;SDS011;6549;53.128;8.182;2023-02-22T13:33:49;27.27;;;15.60;;
12968;SDS011;6549;53.128;8.182;2023-02-22T13:54:05;27.23;;;14.20;;
12968;SDS011;6549;53.128;8.182;2023-02-22T14:00:32;24.40;;;13.30;;
12968;SDS011;6549;53.128;8.182;2023-02-22T14:03:48;22.90;;;13.40;;
12968;SDS011;6549;53.128;8.182;2023-02-22T14:06:48;25.02;;;14.10;;
12968;SDS011;6549;53.128;8.182;2023-02-22T14:09:50;25.80;;;15.02;;
12968;SDS011;6549;53.128;8.182;2023-02-22T14:12:53;25.83;;;14.35;;
12968;SDS011;6549;53.128;8.182;2023-02-22T14:22:26;26.85;;;15.93;;
12968;SDS011;6549;53.128;8.182;2023-02-22T14:25:38;25.20;;;14.57;;
12968;SDS011;6549;53.128;8.182;2023-02-22T14:32:00;27.65;;;16.08;;
12968;SDS011;6549;53.128;8.182;2023-02-22T14:35:11;28.30;;;15.55;;
12968;SDS011;6549;53.128;8.182;2023-02-22T14:38:15;24.38;;;14.57;;
12968;SDS011;6549;53.128;8.182;2023-02-22T14:41:20;23.27;;;14.02;;
12968;SDS011;6549;53.128;8.182;2023-02-22T14:44:31;28.45;;;16.35;;
12968;SDS011;6549;53.128;8.182;2023-02-22T14:47:55;25.45;;;14.95;;
12968;SDS011;6549;53.128;8.182;2023-02-22T14:51:03;25.08;;;15.13;;
12968;SDS011;6549;53.128;8.182;2023-02-22T14:54:14;27.20;;;14.43;;
12968;SDS011;6549;53.128;8.182;2023-02-22T14:57:24;25.90;;;15.18;;
12968;SDS011;6549;53.128;8.182;2023-02-22T15:00:42;24.25;;;13.80;;
12968;SDS011;6549;53.128;8.182;2023-02-22T15:03:45;26.05;;;15.52;;
12968;SDS011;6549;53.128;8.182;2023-02-22T15:06:46;25.60;;;15.07;;
12968;SDS011;6549;53.128;8.182;2023-02-22T15:09:46;24.52;;;14.85;;
12968;SDS011;6549;53.128;8.182;2023-02-22T15:12:51;21.95;;;13.05;;
12968;SDS011;6549;53.128;8.182;2023-02-22T15:18:54;26.15;;;14.43;;
12968;SDS011;6549;53.128;8.182;2023-02-22T15:21:57;25.27;;;14.60;;
12968;SDS011;6549;53.128;8.182;2023-02-22T15:25:01;28.85;;;16.33;;
12968;SDS011;6549;53.128;8.182;2023-02-22T15:28:05;25.98;;;15.13;;
12968;SDS011;6549;53.128;8.182;2023-02-22T15:34:29;26.80;;;14.40;;
12968;SDS011;6549;53.128;8.182;2023-02-22T15:37:30;24.42;;;14.57;;
12968;SDS011;6549;53.128;8.182;2023-02-22T15:40:32;23.20;;;12.63;;
12968;SDS011;6549;53.128;8.182;2023-02-22T15:43:33;26.00;;;14.70;;
12968;SDS011;6549;53.128;8.182;2023-02-22T15:46:33;24.48;;;13.68;;
12968;SDS011;6549;53.128;8.182;2023-02-22T15:49:34;22.13;;;13.32;;
12968;SDS011;6549;53.128;8.182;2023-02-22T15:55:37;21.87;;;13.33;;
12968;SDS011;6549;53.128;8.182;2023-02-22T15:58:40;19.88;;;11.27;;
12968;SDS011;6549;53.128;8.182;2023-02-22T16:04:44;19.50;;;11.82;;
12968;SDS011;6549;53.128;8.182;2023-02-22T16:07:48;24.92;;;13.80;;
12968;SDS011;6549;53.128;8.182;2023-02-22T16:11:09;23.48;;;13.45;;
12968;SDS011;6549;53.128;8.182;2023-02-22T16:17:37;23.88;;;12.68;;
12968;SDS011;6549;53.128;8.182;2023-02-22T16:20:40;18.98;;;11.27;;
12968;SDS011;6549;53.128;8.182;2023-02-22T16:23:44;17.90;;;11.10;;
12968;SDS011;6549;53.128;8.182;2023-02-22T16:27:02;20.33;;;11.80;;
12968;SDS011;6549;53.128;8.182;2023-02-22T16:33:27;19.38;;;11.43;;
12968;SDS011;6549;53.128;8.182;2023-02-22T16:36:45;19.60;;;11.90;;
12968;SDS011;6549;53.128;8.182;2023-02-22T16:39:50;17.75;;;10.82;;
12968;SDS011;6549;53.128;8.182;2023-02-22T16:42:50;17.48;;;10.52;;
12968;SDS011;6549;53.128;8.182;2023-02-22T16:45:51;18.55;;;10.65;;
12968;SDS011;6549;53.128;8.182;2023-02-22T16:48:54;18.85;;;10.68;;
12968;SDS011;6549;53.128;8.182;2023-02-22T16:51:55;21.83;;;13.40;;
12968;SDS011;6549;53.128;8.182;2023-02-22T16:55:00;22.27;;;13.38;;
12968;SDS011;6549;53.128;8.182;2023-02-22T16:58:01;21.45;;;11.70;;
12968;SDS011;6549;53.128;8.182;2023-02-22T17:01:02;19.10;;;10.53;;
12968;SDS011;6549;53.128;8.182;2023-02-22T17:04:08;16.38;;;10.18;;
12968;SDS011;6549;53.128;8.182;2023-02-22T17:07:14;16.52;;;9.75;;
12968;SDS011;6549;53.128;8.182;2023-02-22T17:10:19;18.08;;;9.48;;
12968;SDS011;6549;53.128;8.182;2023-02-22T17:13:22;16.52;;;9.88;;
12968;SDS011;6549;53.128;8.182;2023-02-22T17:16:24;14.30;;;8.70;;
12968;SDS011;6549;53.128;8.182;2023-02-22T17:19:25;13.95;;;8.15;;
12968;SDS011;6549;53.128;8.182;2023-02-22T17:22:25;12.68;;;7.97;;
12968;SDS011;6549;53.128;8.182;2023-02-22T17:25:27;13.48;;;7.90;;
12968;SDS011;6549;53.128;8.182;2023-02-22T17:28:31;13.98;;;8.40;;
12968;SDS011;6549;53.128;8.182;2023-02-22T17:31:31;14.50;;;8.20;;
12968;SDS011;6549;53.128;8.182;2023-02-22T17:34:32;12.68;;;7.22;;
12968;SDS011;6549;53.128;8.182;2023-02-22T17:37:32;13.68;;;8.30;;
12968;SDS011;6549;53.128;8.182;2023-02-22T17:40:33;15.90;;;8.60;;
12968;SDS011;6549;53.128;8.182;2023-02-22T17:43:36;18.08;;;10.93;;
12968;SDS011;6549;53.128;8.182;2023-02-22T17:46:37;17.58;;;10.75;;
12968;SDS011;6549;53.128;8.182;2023-02-22T17:49:39;19.67;;;11.48;;
12968;SDS011;6549;53.128;8.182;2023-02-22T17:52:40;19.67;;;11.80;;
12968;SDS011;6549;53.128;8.182;2023-02-22T17:55:41;17.73;;;10.30;;
12968;SDS011;6549;53.128;8.182;2023-02-22T17:58:41;16.92;;;10.70;;
12968;SDS011;6549;53.128;8.182;2023-02-22T18:01:42;16.65;;;10.00;;
12968;SDS011;6549;53.128;8.182;2023-02-22T18:04:42;18.55;;;10.63;;
12968;SDS011;6549;53.128;8.182;2023-02-22T18:07:43;18.27;;;10.40;;
12968;SDS011;6549;53.128;8.182;2023-02-22T18:10:45;16.75;;;9.98;;
12968;SDS011;6549;53.128;8.182;2023-02-22T18:13:45;15.38;;;8.85;;
12968;SDS011;6549;53.128;8.182;2023-02-22T18:16:46;15.43;;;9.15;;
12968;SDS011;6549;53.128;8.182;2023-02-22T18:19:46;16.13;;;9.23;;
12968;SDS011;6549;53.128;8.182;2023-02-22T18:22:47;15.85;;;9.98;;
12968;SDS011;6549;53.128;8.182;2023-02-22T18:25:48;17.00;;;9.40;;
12968;SDS011;6549;53.128;8.182;2023-02-22T18:28:50;14.75;;;8.95;;
12968;SDS011;6549;53.128;8.182;2023-02-22T18:31:52;14.90;;;8.82;;
12968;SDS011;6549;53.128;8.182;2023-02-22T18:34:52;13.85;;;8.27;;
12968;SDS011;6549;53.128;8.182;2023-02-22T18:37:53;13.30;;;8.65;;
12968;SDS011;6549;53.128;8.182;2023-02-22T18:40:57;14.25;;;8.70;;
12968;SDS011;6549;53.128;8.182;2023-02-22T18:44:01;14.02;;;8.48;;
12968;SDS011;6549;53.128;8.182;2023-02-22T18:47:03;15.45;;;9.50;;
12968;SDS011;6549;53.128;8.182;2023-02-22T18:50:03;17.90;;;10.48;;
12968;SDS011;6549;53.128;8.182;2023-02-22T18:53:03;17.50;;;10.90;;
12968;SDS011;6549;53.128;8.182;2023-02-22T18:56:04;20.60;;;12.05;;
12968;SDS011;6549;53.128;8.182;2023-02-22T18:59:09;20.95;;;11.77;;
12968;SDS011;6549;53.128;8.182;2023-02-22T19:02:15;19.65;;;11.43;;
12968;SDS011;6549;53.128;8.182;2023-02-22T19:05:19;19.88;;;12.15;;
12968;SDS011;6549;53.128;8.182;2023-02-22T19:08:20;19.52;;;12.32;;
12968;SDS011;6549;53.128;8.182;2023-02-22T19:11:22;30.13;;;18.25;;
12968;SDS011;6549;53.128;8.182;2023-02-22T19:14:23;30.50;;;18.55;;
12968;SDS011;6549;53.128;8.182;2023-02-22T19:17:23;24.60;;;15.63;;
12968;SDS011;6549;53.128;8.182;2023-02-22T19:20:24;25.30;;;14.73;;
12968;SDS011;6549;53.128;8.182;2023-02-22T19:23:31;22.05;;;14.05;;
12968;SDS011;6549;53.128;8.182;2023-02-22T19:26:32;21.00;;;13.35;;
12968;SDS011;6549;53.128;8.182;2023-02-22T19:29:32;21.33;;;13.43;;
12968;SDS011;6549;53.128;8.182;2023-02-22T19:32:32;22.25;;;12.93;;
12968;SDS011;6549;53.128;8.182;2023-02-22T19:35:35;21.10;;;12.63;;
12968;SDS011;6549;53.128;8.182;2023-02-22T19:38:36;21.02;;;13.13;;
12968;SDS011;6549;53.128;8.182;2023-02-22T19:41:37;20.90;;;12.85;;
12968;SDS011;6549;53.128;8.182;2023-02-22T19:44:38;22.17;;;12.98;;
12968;SDS011;6549;53.128;8.182;2023-02-22T19:47:38;22.17;;;13.43;;
12968;SDS011;6549;53.128;8.182;2023-02-22T19:50:39;19.90;;;12.15;;
12968;SDS011;6549;53.128;8.182;2023-02-22T19:53:47;19.58;;;13.13;;
12968;SDS011;6549;53.128;8.182;2023-02-22T19:56:48;22.27;;;13.20;;
12968;SDS011;6549;53.128;8.182;2023-02-22T19:59:50;24.52;;;14.60;;
12968;SDS011;6549;53.128;8.182;2023-02-22T20:03:00;20.80;;;13.35;;
12968;SDS011;6549;53.128;8.182;2023-02-22T20:06:04;22.40;;;14.07;;
12968;SDS011;6549;53.128;8.182;2023-02-22T20:09:10;23.88;;;14.82;;
12968;SDS011;6549;53.128;8.182;2023-02-22T20:12:12;24.30;;;14.75;;
12968;SDS011;6549;53.128;8.182;2023-02-22T20:15:12;25.55;;;15.80;;
12968;SDS011;6549;53.128;8.182;2023-02-22T20:18:13;24.20;;;15.10;;
12968;SDS011;6549;53.128;8.182;2023-02-22T20:21:25;22.02;;;14.63;;
12968;SDS011;6549;53.128;8.182;2023-02-22T20:24:27;20.55;;;13.38;;
12968;SDS011;6549;53.128;8.182;2023-02-22T20:27:27;38.78;;;22.58;;
12968;SDS011;6549;53.128;8.182;2023-02-22T20:30:28;29.85;;;18.25;;